Data for 09/17/2013

Time Sea-Level Adjusted Pressure Absolute Pressure Temperature Relative Humidity Dew Point   
(mb) (inHg) (mb) (inHg) (C) (F) (%) (C) (F)
00:05 1015 29.97 844 24.92 15.5 59.8 60 7.9 46.2
00:10 1015 29.97 844 24.92 14.9 58.8 61 7.4 45.3
00:15 1015 29.97 844 24.92 14.6 58.3 62 7.4 45.4
00:20 1015 29.97 844 24.92 14.7 58.4 60 7 44.6
00:25 1015 29.97 844 24.92 15.3 59.5 57 6.8 44.3
00:30 1015 29.97 844 24.92 15.5 60 56 6.9 44.4
00:35 1015 29.97 844 24.92 15.6 60.2 56 7 44.6
00:40 1015 29.97 844 24.92 15.6 60.1 55 6.8 44.2
00:45 1015 29.97 844 24.92 15.4 59.7 57 7.1 44.8
00:50 1015 29.97 844 24.92 15.4 59.7 57 6.9 44.4
00:55 1015 29.97 844 24.92 15.5 59.9 58 7.4 45.3
01:00 1015 29.97 844 24.92 15.1 59.1 59 7.2 45
01:05 1015 29.97 844 24.92 15.1 59.2 58 7.1 44.7
01:10 1015 29.97 844 24.92 15.2 59.3 58 7.1 44.9
01:15 1015 29.97 844 24.92 14.9 58.8 62 7.7 45.8
01:20 1015 29.97 844 24.92 14.7 58.5 60 7.1 44.8
01:25 1015 29.97 844 24.92 14.8 58.7 61 7.4 45.4
01:30 1014 29.94 844 24.92 14.5 58 62 7.3 45.2
01:35 1014 29.94 844 24.92 14.6 58.3 58 6.6 43.8
01:40 1014 29.94 844 24.92 15 59 60 7.3 45.2
01:45 1014 29.94 843 24.89 14.5 58.2 61 7.1 44.8
01:50 1014 29.94 843 24.89 14.5 58 60 6.9 44.5
01:55 1014 29.94 843 24.89 14.7 58.4 59 6.7 44.1
02:00 1014 29.94 843 24.89 14.6 58.2 60 7.1 44.7
02:05 1014 29.94 843 24.89 14.4 57.8 63 7.4 45.3
02:10 1014 29.94 843 24.89 14.2 57.5 63 7.2 44.9
02:15 1014 29.94 843 24.89 13.7 56.7 65 7.4 45.3
02:20 1014 29.94 843 24.89 13.3 56 66 7.2 45
02:25 1014 29.94 843 24.89 13.3 56 66 7.2 44.9
02:30 1014 29.94 843 24.89 13.3 55.9 67 7.3 45.1
02:35 1014 29.94 843 24.89 13.3 56 67 7.3 45.2
02:40 1014 29.94 843 24.89 13.3 56 67 7.4 45.3
02:45 1014 29.94 843 24.89 13.6 56.6 66 7.5 45.4
02:50 1014 29.94 843 24.89 14 57.2 65 7.6 45.7
02:55 1014 29.94 843 24.89 14 57.2 66 7.8 46.1
03:00 1014 29.94 843 24.89 14.2 57.5 65 7.7 45.8
03:05 1014 29.94 843 24.89 14.3 57.7 63 7.5 45.5
03:10 1014 29.94 843 24.89 14.3 57.7 63 7.4 45.3
03:15 1014 29.94 843 24.89 14.3 57.7 63 7.3 45.2
03:20 1014 29.94 843 24.89 14.5 58 66 8.2 46.7
03:25 1014 29.94 843 24.89 14.2 57.5 65 7.7 45.9
03:30 1014 29.94 843 24.89 14.1 57.4 64 7.5 45.5
03:35 1014 29.94 843 24.89 13.9 56.9 64 7.1 44.8
03:40 1014 29.94 843 24.89 13.8 56.9 65 7.4 45.3
03:45 1014 29.94 843 24.89 13.7 56.6 66 7.4 45.3
03:50 1014 29.94 843 24.89 13.4 56.1 65 6.9 44.5
03:55 1014 29.94 843 24.89 13.5 56.2 65 7.2 44.9
04:00 1014 29.94 843 24.89 13.3 56 64 6.7 44.1
04:05 1014 29.94 843 24.89 13.6 56.6 64 6.9 44.4
04:10 1014 29.94 843 24.89 13.4 56.2 65 7 44.7
04:15 1014 29.94 843 24.89 13.2 55.8 66 7.1 44.8
04:20 1014 29.94 843 24.89 13.1 55.6 66 6.9 44.5
04:25 1014 29.94 843 24.89 13 55.4 68 7.3 45.2
04:30 1014 29.94 843 24.89 12.9 55.1 67 7 44.6
04:35 1014 29.94 843 24.89 12.9 55.2 66 6.8 44.3
04:40 1014 29.94 843 24.89 13.2 55.8 64 6.7 44
04:45 1014 29.94 843 24.89 13.5 56.3 63 6.7 44
04:50 1014 29.94 843 24.89 13.5 56.4 64 7 44.6
04:55 1014 29.94 843 24.89 13.3 55.9 66 7.1 44.8
05:00 1014 29.94 843 24.89 13.2 55.8 66 7.1 44.8
05:05 1014 29.94 843 24.89 13.1 55.5 68 7.2 45
05:10 1014 29.94 843 24.89 13 55.4 68 7.3 45.1
05:15 1014 29.94 843 24.89 13 55.5 67 7.1 44.8
05:20 1014 29.94 843 24.89 13 55.4 68 7.2 45
05:25 1014 29.94 843 24.89 12.7 54.9 71 7.6 45.7
05:30 1013 29.91 843 24.89 12.4 54.3 70 7.2 44.9
05:35 1014 29.94 843 24.89 12.3 54.1 71 7.3 45.2
05:40 1014 29.94 843 24.89 12.3 54.1 70 7.1 44.7
05:45 1014 29.94 843 24.89 12.5 54.5 68 6.8 44.3
05:50 1013 29.91 843 24.89 12.8 55 69 7.3 45.2
05:55 1013 29.91 843 24.89 12.5 54.4 69 7 44.7
06:00 1013 29.91 843 24.89 12.4 54.2 71 7.3 45.2
06:05 1013 29.91 843 24.89 12.4 54.3 70 7.2 44.9
06:10 1014 29.94 843 24.89 12.2 54 73 7.6 45.6
06:15 1014 29.94 843 24.89 11.9 53.5 73 7.2 45
06:20 1013 29.91 843 24.89 12.3 54.1 70 6.9 44.4
06:25 1013 29.91 843 24.89 12.6 54.7 70 7.4 45.2
06:30 1014 29.94 843 24.89 12.3 54.1 73 7.6 45.7
06:35 1014 29.94 843 24.89 11.9 53.5 73 7.3 45.2
06:40 1014 29.94 843 24.89 12 53.5 72 7.2 44.9
06:45 1014 29.94 843 24.89 12.2 54 74 7.8 46
06:50 1014 29.94 843 24.89 12.3 54.1 76 8.1 46.7
06:55 1014 29.94 843 24.89 12 53.6 76 8 46.4
07:00 1014 29.94 843 24.89 11.6 52.9 81 8.4 47.1
07:05 1014 29.94 843 24.89 11 51.8 81 8 46.3
07:10 1015 29.97 844 24.92 11.4 52.5 81 8.2 46.8
07:15 1015 29.97 844 24.92 12 53.6 80 8.7 47.6
07:20 1015 29.97 844 24.92 12 53.6 80 8.8 47.8
07:25 1015 29.97 844 24.92 11.8 53.3 84 9.1 48.5
07:30 1015 29.97 844 24.92 11.7 53 83 8.8 47.9
07:35 1015 29.97 844 24.92 11.5 52.7 86 9.3 48.7
07:40 1015 29.97 844 24.92 11.3 52.3 87 9.3 48.7
07:45 1015 29.97 844 24.92 11.3 52.3 86 9 48.2
07:50 1015 29.97 844 24.92 11.6 52.9 86 9.4 48.8
07:55 1015 29.97 844 24.92 11.7 53 85 9.2 48.5
08:00 1016 30 845 24.95 12.1 53.9 78 8.5 47.4
08:05 1016 30 845 24.95 12.8 55 83 9.9 49.9
08:10 1016 30 845 24.95 12.3 54.1 84 9.7 49.5
08:15 1016 30 845 24.95 11.8 53.3 84 9.3 48.8
08:20 1016 30 845 24.95 11.9 53.5 84 9.4 48.9
08:25 1016 30 845 24.95 12.1 53.7 86 9.8 49.6
08:30 1016 30 845 24.95 11.7 53 87 9.7 49.4
08:35 1016 30 845 24.95 11.5 52.7 88 9.7 49.4
08:40 1016 30 846 24.98 11.8 53.2 89 10 49.9
08:45 1016 30 845 24.95 11.8 53.2 89 10.1 50.1
08:50 1016 30 845 24.95 11.5 52.7 90 10 49.9
08:55 1016 30 845 24.95 11.3 52.4 91 9.9 49.8
09:00 1016 30 845 24.95 11.3 52.3 90 9.7 49.5
09:05 1016 30 845 24.95 11.4 52.5 90 9.9 49.8
09:10 1016 30 845 24.95 11.6 52.8 90 10 49.9
09:15 1015 29.97 845 24.95 11.7 53.1 90 10.1 50.2
09:20 1015 29.97 845 24.95 11.8 53.2 90 10.2 50.3
09:25 1015 29.97 844 24.92 11.8 53.2 90 10.1 50.2
09:30 1015 29.97 844 24.92 11.9 53.5 89 10.3 50.5
09:35 1015 29.97 844 24.92 12.2 53.9 89 10.4 50.8
09:40 1015 29.97 844 24.92 12.4 54.3 89 10.7 51.2
09:45 1015 29.97 844 24.92 12.4 54.4 88 10.6 51
09:50 1015 29.97 844 24.92 12.6 54.6 87 10.5 50.9
09:55 1015 29.97 844 24.92 12.7 54.9 87 10.6 51
10:00 1015 29.97 844 24.92 12.8 55 85 10.3 50.6
10:05 1015 29.97 844 24.92 12.9 55.2 84 10.2 50.3
10:10 1015 29.97 844 24.92 13 55.4 83 10.2 50.4
10:15 1014 29.94 844 24.92 13.1 55.5 81 10 50
10:20 1014 29.94 844 24.92 13.1 55.6 81 10 50.1
10:25 1014 29.94 844 24.92 13.2 55.7 80 9.8 49.7
10:30 1014 29.94 844 24.92 13.3 55.9 78 9.6 49.3
10:35 1014 29.94 844 24.92 13.5 56.3 75 9.2 48.6
10:40 1015 29.97 844 24.92 13.7 56.6 74 9.1 48.4
10:45 1015 29.97 844 24.92 13.8 56.8 74 9.2 48.6
10:50 1015 29.97 844 24.92 13.7 56.6 74 9.2 48.5
10:55 1014 29.94 844 24.92 13.5 56.3 75 9.2 48.5
11:00 1014 29.94 843 24.89 13.5 56.2 74 8.9 48.1
11:05 1014 29.94 843 24.89 13.5 56.3 72 8.6 47.5
11:10 1014 29.94 843 24.89 13.6 56.5 74 9.1 48.5
11:15 1014 29.94 844 24.92 13.5 56.4 74 9.1 48.3
11:20 1014 29.94 843 24.89 13.5 56.2 78 9.7 49.4
11:25 1014 29.94 843 24.89 13.3 55.9 79 9.7 49.5
11:30 1014 29.94 843 24.89 13.3 55.9 79 9.8 49.6
11:35 1014 29.94 843 24.89 13.4 56.1 78 9.7 49.5
11:40 1013 29.91 842 24.86 13.7 56.7 78 10.1 50.1
11:45 1013 29.91 842 24.86 14.3 57.7 77 10.4 50.8
11:50 1013 29.91 842 24.86 15 58.9 70 9.7 49.4
11:55 1013 29.91 842 24.86 15.4 59.7 72 10.3 50.6
12:00 1012 29.88 841 24.83 15.3 59.6 70 10 50
12:05 1012 29.88 841 24.83 15.3 59.6 71 10.1 50.1
12:10 1012 29.88 841 24.83 15.6 60 70 10.1 50.1
12:15 1012 29.88 841 24.83 15.9 60.6 67 9.8 49.6
12:20 1012 29.88 841 24.83 16.5 61.7 65 10 49.9
12:25 1012 29.88 841 24.83 16.5 61.7 65 10.1 50.1
12:30 1012 29.88 842 24.86 16.4 61.5 64 9.6 49.3
12:35 1012 29.88 841 24.83 16.4 61.5 62 9.2 48.6
12:40 1012 29.88 841 24.83 16.3 61.3 63 9.3 48.7
12:45 1012 29.88 841 24.83 16.4 61.5 62 9.1 48.5
12:50 1012 29.88 841 24.83 16.7 62 61 9.3 48.7
12:55 1012 29.88 841 24.83 17 62.6 60 9.3 48.8
13:00 1012 29.88 841 24.83 17.5 63.5 57 8.9 48
13:05 1012 29.88 841 24.83 18.1 64.5 56 9.3 48.7
13:10 1011 29.85 841 24.83 18.6 65.4 58 10.2 50.4
13:15 1011 29.85 840 24.81 18.2 64.7 60 10.5 50.8
13:20 1011 29.85 840 24.81 17.7 63.9 63 10.7 51.2
13:25 1011 29.85 840 24.81 17.4 63.2 63 10.3 50.5
13:30 1011 29.85 840 24.81 18 64.4 61 10.5 51
13:35 1011 29.85 840 24.81 17.9 64.2 61 10.4 50.6
13:40 1011 29.85 840 24.81 17.7 63.8 59 9.8 49.6
13:45 1011 29.85 840 24.81 18.7 65.7 56 9.8 49.6
13:50 1011 29.85 840 24.81 19.5 67.1 53 9.7 49.5
13:55 1010 29.83 840 24.81 19.7 67.5 54 10.2 50.3
14:00 1010 29.83 840 24.81 18.9 66 58 10.5 50.9
14:05 1010 29.83 839 24.78 18.5 65.2 57 9.9 49.8
14:10 1010 29.83 839 24.78 18.9 66 55 9.8 49.7
14:15 1010 29.83 839 24.78 19.1 66.3 55 9.9 49.7
14:20 1010 29.83 839 24.78 18.8 65.8 57 10.1 50.2
14:25 1010 29.83 839 24.78 18.5 65.3 57 10 50
14:30 1010 29.83 839 24.78 18.8 65.8 56 10 50
14:35 1010 29.83 839 24.78 18.4 65.1 59 10.4 50.8
14:40 1010 29.83 839 24.78 18.1 64.6 56 9.3 48.7
14:45 1010 29.83 839 24.78 18.1 64.5 55 8.9 48.1
14:50 1010 29.83 839 24.78 18.3 64.9 57 9.8 49.6
14:55 1010 29.83 839 24.78 18.4 65 57 9.8 49.6
15:00 1010 29.83 839 24.78 18.5 65.3 57 9.8 49.7
15:05 1010 29.83 839 24.78 18.5 65.3 57 10 50.1
15:10 1010 29.83 839 24.78 18.1 64.6 62 10.8 51.4
15:15 1010 29.83 839 24.78 17.6 63.7 63 10.7 51.2
15:20 1010 29.83 840 24.81 17.2 63 64 10.3 50.6
15:25 1011 29.85 840 24.81 16.5 61.6 72 11.4 52.6
15:30 1011 29.85 840 24.81 15.3 59.5 75 10.9 51.7
15:35 1011 29.85 840 24.81 14.6 58.2 71 9.4 48.9
15:40 1011 29.85 840 24.81 14.4 57.8 73 9.6 49.4
15:45 1011 29.85 840 24.81 14.1 57.3 78 10.4 50.6
15:50 1011 29.85 840 24.81 13.3 56 81 10.2 50.4
15:55 1011 29.85 841 24.83 12.9 55.2 85 10.4 50.8
16:00 1011 29.85 840 24.81 12.7 54.8 86 10.5 50.8
16:05 1011 29.85 840 24.81 12.6 54.7 87 10.5 50.9
16:10 1011 29.85 840 24.81 12.7 54.8 85 10.2 50.4
16:15 1011 29.85 840 24.81 12.5 54.5 86 10.2 50.3
16:20 1011 29.85 840 24.81 12.3 54.1 87 10.3 50.5
16:25 1010 29.83 840 24.81 12.3 54.1 87 10.2 50.3
16:30 1010 29.83 839 24.78 12.2 54 87 10.1 50.2
16:35 1010 29.83 839 24.78 12.2 54 85 9.9 49.7
16:40 1010 29.83 839 24.78 12.2 53.9 83 9.3 48.8
16:45 1010 29.83 839 24.78 12.3 54.1 84 9.6 49.3
16:50 1010 29.83 840 24.81 12.3 54.2 83 9.5 49.1
16:55 1011 29.85 840 24.81 12.4 54.4 82 9.4 48.9
17:00 1011 29.85 840 24.81 12.4 54.3 82 9.4 48.9
17:05 1011 29.85 840 24.81 12.5 54.5 82 9.5 49.2
17:10 1011 29.85 840 24.81 12.5 54.5 82 9.5 49.2
17:15 1011 29.85 840 24.81 12.6 54.6 81 9.3 48.8
17:20 1011 29.85 840 24.81 12.6 54.6 80 9.3 48.8
17:25 1011 29.85 840 24.81 12.6 54.6 82 9.7 49.4
17:30 1011 29.85 841 24.83 12.4 54.2 84 9.7 49.5
17:35 1011 29.85 841 24.83 12.2 54 84 9.7 49.4
17:40 1011 29.85 841 24.83 12.2 54 85 9.7 49.5
17:45 1012 29.88 841 24.83 12.2 54 85 9.8 49.7
17:50 1012 29.88 841 24.83 12.2 54 85 9.8 49.6
17:55 1012 29.88 841 24.83 12.2 54 86 9.9 49.8
18:00 1012 29.88 841 24.83 12.2 54 83 9.5 49.2
18:05 1012 29.88 841 24.83 12.3 54.1 83 9.4 49
18:10 1012 29.88 841 24.83 12.2 53.9 83 9.5 49.1
18:15 1012 29.88 841 24.83 12.1 53.7 85 9.6 49.3
18:20 1012 29.88 841 24.83 11.9 53.5 86 9.6 49.3
18:25 1012 29.88 841 24.83 11.8 53.3 85 9.5 49
18:30 1012 29.88 841 24.83 11.8 53.3 85 9.4 48.9
18:35 1012 29.88 841 24.83 11.8 53.2 82 8.8 47.9
18:40 1012 29.88 841 24.83 11.6 52.9 82 8.8 47.8
18:45 1012 29.88 841 24.83 11.5 52.7 84 8.9 48
18:50 1011 29.85 840 24.81 11.2 52.2 86 9 48.3
18:55 1011 29.85 840 24.81 11 51.8 86 8.8 47.9
19:00 1011 29.85 840 24.81 11 51.8 87 8.9 48
19:05 1011 29.85 840 24.81 10.9 51.5 86 8.6 47.6
19:10 1011 29.85 840 24.81 10.9 51.6 87 8.8 47.9
19:15 1011 29.85 840 24.81 10.9 51.7 86 8.7 47.7
19:20 1010 29.83 840 24.81 11 51.7 85 8.5 47.3
19:25 1010 29.83 839 24.78 11.1 52 84 8.5 47.3
19:30 1010 29.83 839 24.78 11.3 52.3 82 8.3 46.9
19:35 1010 29.83 839 24.78 11.5 52.7 81 8.3 47
19:40 1010 29.83 839 24.78 11.5 52.8 82 8.6 47.5
19:45 1010 29.83 840 24.81 11.6 52.9 81 8.5 47.2
19:50 1011 29.85 840 24.81 11.7 53.1 81 8.7 47.6
19:55 1011 29.85 840 24.81 11.8 53.3 80 8.5 47.3
20:00 1011 29.85 840 24.81 12 53.7 77 8.2 46.7
20:05 1010 29.83 840 24.81 12.3 54.1 77 8.3 47
20:10 1010 29.83 839 24.78 12.2 54 78 8.5 47.3
20:15 1010 29.83 839 24.78 12.2 53.9 78 8.6 47.4
20:20 1010 29.83 839 24.78 12.1 53.8 79 8.5 47.4
20:25 1010 29.83 839 24.78 12.3 54.2 78 8.6 47.5
20:30 1010 29.83 839 24.78 12.3 54.2 76 8.2 46.8
20:35 1010 29.83 839 24.78 12.5 54.5 75 8.1 46.7
20:40 1010 29.83 839 24.78 12.6 54.7 75 8.3 46.9
20:45 1010 29.83 839 24.78 12.2 54 80 8.8 47.9
20:50 1010 29.83 839 24.78 11.9 53.4 79 8.5 47.2
20:55 1010 29.83 840 24.81 11.9 53.4 81 8.7 47.7
21:00 1011 29.85 840 24.81 11.7 53.1 82 8.8 47.8
21:05 1010 29.83 840 24.81 11.7 53 82 8.7 47.6
21:10 1011 29.85 840 24.81 11.7 53.1 81 8.6 47.5
21:15 1010 29.83 840 24.81 11.8 53.2 81 8.6 47.5
21:20 1010 29.83 839 24.78 11.8 53.2 80 8.5 47.4
21:25 1010 29.83 839 24.78 11.8 53.2 81 8.6 47.4
21:30 1010 29.83 839 24.78 11.7 53.1 80 8.4 47.2
21:35 1010 29.83 839 24.78 11.8 53.2 79 8.3 47
21:40 1010 29.83 839 24.78 11.7 53.1 79 8.2 46.8
21:45 1009 29.8 839 24.78 11.8 53.3 78 8.1 46.6
21:50 1010 29.83 839 24.78 11.9 53.4 77 8 46.3
21:55 1010 29.83 839 24.78 12.1 53.8 76 8 46.4
22:00 1010 29.83 839 24.78 12.2 53.9 75 7.9 46.2
22:05 1010 29.83 839 24.78 12.3 54.1 74 7.8 46.1
22:10 1011 29.85 840 24.81 12.4 54.3 75 8 46.4
22:15 1011 29.85 840 24.81 12.3 54.2 77 8.5 47.3
22:20 1011 29.85 840 24.81 11.6 53 83 8.8 47.8
22:25 1011 29.85 840 24.81 11 51.8 85 8.6 47.5
22:30 1011 29.85 840 24.81 10.7 51.2 86 8.5 47.2
22:35 1011 29.85 840 24.81 10.4 50.8 87 8.3 47
22:40 1011 29.85 840 24.81 10.1 50.2 89 8.3 47
22:45 1011 29.85 840 24.81 9.9 49.9 89 8.3 46.9
22:50 1011 29.85 840 24.81 9.9 49.9 89 8.2 46.7
22:55 1011 29.85 840 24.81 9.9 49.8 89 8.2 46.7
23:00 1011 29.85 840 24.81 9.8 49.7 89 8.1 46.6
23:05 1011 29.85 840 24.81 9.9 49.8 88 8 46.4
23:10 1011 29.85 840 24.81 9.9 49.8 88 8.1 46.5
23:15 1011 29.85 840 24.81 9.9 49.7 88 8 46.4
23:20 1011 29.85 840 24.81 9.9 49.8 88 8 46.4
23:25 1011 29.85 840 24.81 9.8 49.6 88 7.9 46.3
23:30 1011 29.85 840 24.81 9.6 49.3 89 7.9 46.3
23:35 1011 29.85 840 24.81 9.5 49 89 7.8 46.1
23:40 1010 29.83 840 24.81 9.4 49 89 7.8 46
23:45 1010 29.83 839 24.78 9.5 49.1 89 7.8 46.1
23:50 1010 29.83 839 24.78 9.4 49 90 7.9 46.1
23:55 1010 29.83 839 24.78 9.4 49 89 7.8 46
24:00 1010 29.83 839 24.78 9.3 48.7 90 7.7 45.9